KCAV

Clarion Municipal Airport

Clarion, Iowa, USA
METAR KCAV 231055Z AUTO 11014KT 4SM BR BKN050 OVC060 18/16 A3010 RMK AO2 P0004 PWINO
Observed Flight Rules
May-23 @ 10:55 UTC (18 minutes ago) Marginal Visual Flight Rules
Wind Visibility Clouds Conditions
110° at 14 knots 4 miles
  • Broken at 5,000' AGL
  • Overcast at 6,000' AGL
  • Mist
Temperatures Readings Precipitation
Current 18°C / 64°F
Dewpoint 16°C / 61°F
Humidity 88%
Altimeter 30.1" Hg
Pressure 1019 hPa
Elevation 354
Current Rain 0.04
METAR KCAV 231055Z AUTO 11014KT 4SM BR BKN050 OVC060 18/16 A3010 RMK AO2 P0004 PWINO
Observed Flight Rules
May-23 @ 10:55 UTC
(18 minutes ago)
MVFR
Wind Visibility
110° at 14 knots 4 miles
Clouds
  • Broken at 5,000' AGL
  • Overcast at 6,000' AGL
Conditions
  • Mist
Temperature Dewpoint
18°C / 64°F 16°C / 61°F
Humidity Altimeter Pressure
88% 30.1" Hg 1019 hPa
Current Rain
0.04